• Join FlightAware (Why Join?)
  • Login
  • US Flag 
02:02AM EST


 

Airport Tracker/Info


-or-


 

Live Flight TrackerFlight Track Log ✈ SWA286 ✈ 24-Apr-2013 ✈ KBNA - KDEN

Flight Track Log - Related Links

Times and Time Zones

All times are in EDT time to prevent confusion due to time zone crossing. See the SWA286 flight status page for this flight to view local times or setup timezone preferences in your user account.

Time Position Orientation Groundspeed Altitude Reporting Facility
EDT Latitude Longitude Course Direction KTS MPH feet Rate Location/Type
04:42PM 36.1500 -86.6667 360° North 162 186 1,200  Level Nashville TRACON
04:43PM 36.1833 -86.6667 360° North 177 204 2,700 2,220 Climbing Nashville TRACON
04:44PM 36.2000 -86.7333 287° West 224 258 5,300 3,120 Climbing Nashville TRACON
04:45PM 36.2167 -86.8167 284° West 256 295 9,000 3,360 Climbing Nashville TRACON
04:46PM 36.2225 -86.8814 276° West 256 295 11,500 2,940 Climbing Memphis Center
04:47PM 36.2378 -86.9861 280° West 291 335 14,400 3,120 Climbing Memphis Center
04:48PM 36.2533 -87.0961 280° West 323 372 17,800 2,760 Climbing Memphis Center
04:49PM 36.2664 -87.1961 279° West 329 379 20,000 2,340 Climbing Memphis Center
04:50PM 36.2839 -87.3139 280° West 340 391 22,500 2,520 Climbing Memphis Center
04:51PM 36.3033 -87.4314 282° West 352 405 25,100 2,160 Climbing Memphis Center
04:52PM 36.3372 -87.5514 289° West 357 411 26,900 1,800 Climbing Memphis Center
04:53PM 36.3919 -87.6681 300° West 374 430 28,700 2,280 Climbing Memphis Center
04:54PM 36.4469 -87.7978 298° West 385 443 31,500 2,340 Climbing Memphis Center
04:55PM 36.4972 -87.9097 299° West 385 443 33,400 1,200 Climbing Memphis Center
04:56PM 36.5472 -88.0194 300° West 375 432 34,000 300 Climbing Memphis Center
04:57PM 36.5992 -88.1289 301° West 375 432 34,000 600 Level Memphis Center
04:58PM 36.6469 -88.2414 298° West 370 426 35,200 1,440 Climbing Memphis Center
04:59PM 36.6678 -88.3572 283° West 358 412 36,900 900 Climbing Memphis Center
05:00PM 36.6842 -88.4733 280° West 347 399 37,000  Climbing Memphis Center
05:01PM 36.7044 -88.5867 283° West 347 399 37,000 -240 Level Memphis Center
05:02PM 36.7228 -88.7056 281° West 347 399 36,600 -540 Descending Memphis Center
05:03PM 36.7411 -88.8217 281° West 347 399 36,000 -300 Descending Memphis Center
05:04PM 36.7569 -88.9247 281° West 347 399 36,000  Level Memphis Center
05:05PM 36.7747 -89.0436 281° West 352 405 36,000  Level Memphis Center
05:06PM 36.7928 -89.1600 281° West 352 405 36,000  Level Memphis Center
05:07PM 36.8106 -89.2764 281° West 352 405 36,000  Level Memphis Center
05:08PM 36.8281 -89.3953 280° West 352 405 36,000  Level Memphis Center
05:09PM 36.8456 -89.5144 280° West 352 405 36,000  Level Memphis Center
05:10PM 36.8631 -89.6308 281° West 352 405 36,000  Level Memphis Center
05:11PM 36.8803 -89.7475 280° West 352 405 36,000  Level Memphis Center
05:12PM 36.8956 -89.8614 280° West 352 405 36,000  Level Memphis Center
05:13PM 36.9125 -89.9781 280° West 352 405 36,000  Level Memphis Center
05:14PM 36.9294 -90.0922 281° West 352 405 36,000  Level Memphis Center
05:15PM 36.9464 -90.2089 280° West 352 405 36,000  Level Memphis Center
05:16PM 36.9631 -90.3258 280° West 352 405 36,000  Level Memphis Center
05:18PM 36.9972 -90.5533 281° West 336 387 36,000  Level Kansas City Center
05:19PM 37.0128 -90.6692 280° West 337 388 36,000  Level Kansas City Center
05:20PM 37.0281 -90.7839 280° West 336 387 36,000  Level Kansas City Center
05:21PM 37.0442 -90.8989 280° West 335 386 36,000  Level Kansas City Center
05:22PM 37.0592 -91.0122 279° West 333 383 36,000  Level Kansas City Center
05:23PM 37.0767 -91.1389 280° West 333 383 36,000  Level Kansas City Center
05:24PM 37.0911 -91.2533 279° West 331 381 36,000  Level Kansas City Center
05:25PM 37.1067 -91.3681 280° West 332 382 36,000  Level Kansas City Center
05:26PM 37.1222 -91.4822 280° West 332 382 36,000  Level Kansas City Center
05:27PM 37.1408 -91.6181 280° West 331 381 36,000  Level Kansas City Center
05:28PM 37.1564 -91.7325 280° West 331 381 36,000  Level Kansas City Center
05:29PM 37.1708 -91.8475 279° West 332 382 36,000  Level Kansas City Center
05:30PM 37.1861 -91.9611 280° West 329 379 36,000  Level Kansas City Center
05:31PM 37.2006 -92.0753 279° West 331 381 36,000  Level Kansas City Center
05:32PM 37.2156 -92.1889 279° West 329 379 36,000  Level Kansas City Center
05:33PM 37.2297 -92.3031 279° West 329 379 36,000  Level Kansas City Center
05:34PM 37.2444 -92.4175 279° West 329 379 36,000  Level Kansas City Center
05:35PM 37.2611 -92.5525 279° West 328 377 36,000  Level Kansas City Center
05:36PM 37.2753 -92.6658 279° West 327 376 36,000  Level Kansas City Center
05:37PM 37.2894 -92.7800 279° West 327 376 36,000  Level Kansas City Center
05:39PM 37.3036 -92.8942 279° West 329 379 36,000  Level Kansas City Center
05:40PM 37.3172 -93.0078 279° West 328 377 36,000  Level Kansas City Center
05:41PM 37.3303 -93.1217 278° West 327 376 36,000  Level Kansas City Center
05:42PM 37.3433 -93.2336 278° West 326 375 36,000  Level Kansas City Center
05:43PM 37.3578 -93.3453 279° West 324 373 36,000  Level Kansas City Center
05:44PM 37.3969 -93.4792 290° West 336 387 36,000  Level Kansas City Center
05:45PM 37.4269 -93.5867 289° West 331 381 36,000  Level Kansas City Center
05:46PM 37.4569 -93.6961 289° West 329 379 36,000  Level Kansas City Center
05:47PM 37.4869 -93.8053 289° West 329 379 36,000  Level Kansas City Center
05:48PM 37.5172 -93.9150 289° West 328 377 36,000  Level Kansas City Center
05:49PM 37.5467 -94.0233 289° West 328 377 36,000  Level Kansas City Center
05:50PM 37.5828 -94.1492 290° West 327 376 36,000  Level Kansas City Center
05:51PM 37.6108 -94.2564 288° West 323 372 36,000  Level Kansas City Center
05:52PM 37.6403 -94.3631 289° West 323 372 36,000  Level Kansas City Center
05:53PM 37.6697 -94.4692 289° West 322 371 36,000  Level Kansas City Center
05:54PM 37.6989 -94.5797 288° West 322 371 36,000  Level Kansas City Center
05:55PM 37.7319 -94.7017 289° West 326 375 36,000  Level Kansas City Center
05:56PM 37.7592 -94.8039 289° West 324 373 36,000  Level Kansas City Center
05:57PM 37.7908 -94.9261 288° West 324 373 36,000  Level Kansas City Center
05:58PM 37.8194 -95.0308 289° West 327 376 36,000  Level Kansas City Center
05:59PM 37.8475 -95.1411 288° West 327 376 36,000  Level Kansas City Center
06:00PM 37.8764 -95.2486 289° West 325 374 36,000  Level Kansas City Center
06:01PM 37.9047 -95.3569 288° West 325 374 36,000  Level Kansas City Center
06:02PM 37.9372 -95.4808 288° West 323 372 36,000  Level Kansas City Center
06:03PM 37.9647 -95.5867 288° West 325 374 36,000  Level Kansas City Center
06:04PM 37.9956 -95.7072 288° West 322 371 36,000  Level Kansas City Center
06:05PM 38.0217 -95.8097 288° West 319 367 36,000  Level Kansas City Center
06:06PM 38.0519 -95.9297 288° West 319 367 36,000  Level Kansas City Center
06:07PM 38.0783 -96.0314 288° West 317 365 36,000  Level Kansas City Center
06:08PM 38.1039 -96.1344 288° West 319 367 36,000  Level Kansas City Center
06:10PM 38.1314 -96.2411 288° West 319 367 36,000  Level Kansas City Center
06:11PM 38.1628 -96.3681 287° West 315 362 36,000  Level Kansas City Center
06:12PM 38.1894 -96.4739 288° West 317 365 36,000  Level Kansas City Center
06:13PM 38.2156 -96.5800 287° West 316 364 36,000  Level Kansas City Center
06:14PM 38.2417 -96.6847 288° West 312 359 36,000  Level Kansas City Center
06:15PM 38.2683 -96.7908 288° West 315 362 36,000  Level Kansas City Center
06:16PM 38.2939 -96.8961 287° West 314 361 36,000  Level Kansas City Center
06:17PM 38.3247 -97.0233 287° West 315 362 36,000  Level Kansas City Center
06:18PM 38.3506 -97.1303 287° West 317 365 36,000  Level Kansas City Center
06:19PM 38.3767 -97.2378 287° West 319 367 36,000  Level Kansas City Center
06:20PM 38.4031 -97.3461 287° West 321 369 36,000  Level Kansas City Center
06:21PM 38.4294 -97.4544 287° West 322 371 36,000  Level Kansas City Center
06:22PM 38.4597 -97.5839 287° West 320 368 36,000  Level Kansas City Center
06:23PM 38.4858 -97.6917 287° West 319 367 36,000  Level Kansas City Center
06:24PM 38.5106 -97.8008 286° West 321 369 36,000  Level Kansas City Center
06:25PM 38.5361 -97.9086 287° West 321 369 36,000  Level Kansas City Center
06:26PM 38.5619 -98.0181 287° West 324 373 36,000  Level Kansas City Center
06:27PM 38.5878 -98.1294 287° West 328 377 36,000  Level Kansas City Center
06:28PM 38.6189 -98.2644 286° West 333 383 36,000  Level Kansas City Center
06:29PM 38.6458 -98.3761 287° West 331 381 36,000  Level Kansas City Center
06:30PM 38.6706 -98.4875 286° West 328 377 36,000  Level Kansas City Center
06:31PM 38.6967 -98.5981 287° West 325 374 36,000  Level Kansas City Center
06:32PM 38.7222 -98.7092 286° West 326 375 36,000  Level Kansas City Center
06:33PM 38.7472 -98.8242 286° West 334 384 36,000  Level Kansas City Center
06:34PM 38.7789 -98.9625 286° West 337 388 36,000  Level Kansas City Center
06:35PM 38.8036 -99.0775 285° West 336 387 36,000  Level Kansas City Center
06:36PM 38.8308 -99.1933 287° West 339 390 36,000 -120 Level Kansas City Center
06:37PM 38.8489 -99.3114 281° West 339 390 35,800 -540 Descending Kansas City Center
06:38PM 38.8489 -99.3997 270° West 333 383 35,100 -1,080 Descending Denver Center
06:39PM 38.8508 -99.5267 271° West 322 371 34,000 -540 Descending Denver Center
06:40PM 38.8511 -99.6328 270° West 316 364 34,000  Level Denver Center
06:41PM 38.8525 -99.7592 271° West 317 365 34,000  Level Denver Center
06:42PM 38.8533 -99.8656 271° West 313 360 34,000  Level Denver Center
06:43PM 38.8542 -99.9886 271° West 310 357 34,000  Level Denver Center
06:44PM 38.8539 -100.0961 270° West 313 360 34,000  Level Denver Center
06:45PM 38.8547 -100.2217 271° West 315 362 34,000  Level Denver Center
06:46PM 38.8547 -100.3297 270° West 319 367 34,000  Level Denver Center
06:47PM 38.8556 -100.4556 271° West 317 365 34,000  Level Denver Center
06:48PM 38.8558 -100.5650 270° West 321 369 34,000  Level Denver Center
06:49PM 38.8553 -100.6878 270° West 312 359 34,000  Level Denver Center
06:51PM 38.8553 -100.7936 270° West 312 359 34,000  Level Denver Center
06:52PM 38.8553 -100.9164 270° West 310 357 34,000  Level Denver Center
06:53PM 38.8544 -101.0233 269° West 312 359 34,000  Level Denver Center
06:54PM 38.8547 -101.1467 270° West 311 358 34,000  Level Denver Center
06:55PM 38.8533 -101.2542 269° West 315 362 34,000  Level Denver Center
06:56PM 38.8533 -101.3622 270° West 319 367 34,000  Level Denver Center
06:57PM 38.8519 -101.4886 269° West 320 368 34,000  Level Denver Center
06:58PM 38.8511 -101.5981 269° West 321 369 34,000  Level Denver Center
06:59PM 38.8500 -101.7244 269° West 320 368 34,000  Level Denver Center
07:00PM 38.8475 -101.8344 268° West 322 371 34,000  Level Denver Center
07:01PM 38.8456 -101.9611 269° West 321 369 34,000  Level Denver Center
07:02PM 38.8453 -102.0661 270° West 313 360 34,000  Level Denver Center
07:03PM 38.8425 -102.1900 268° West 312 359 34,000  Level Denver Center
07:04PM 38.8403 -102.2978 269° West 315 362 34,000 -180 Level Denver Center
07:05PM 38.8389 -102.4233 269° West 317 365 33,700 -720 Descending Denver Center
07:06PM 38.8358 -102.5247 268° West 303 349 32,600 -840 Descending Denver Center
07:07PM 38.8364 -102.6386 270° West 293 337 32,000 -300 Descending Denver Center
07:08PM 38.8356 -102.7367 269° West 289 333 32,000  Level Denver Center
07:09PM 38.8811 -102.8411 299° West 302 348 32,000  Level Denver Center
07:10PM 38.9258 -102.9372 301° West 311 358 32,000  Level Denver Center
07:11PM 38.9728 -103.0356 302° West 320 368 32,000  Level Denver Center
07:12PM 39.0281 -103.1500 302° West 321 369 32,000 -660 Level Denver Center
07:13PM 39.0731 -103.2464 301° West 312 359 30,700 -1,680 Descending Denver Center
07:14PM 39.1236 -103.3519 302° West 295 339 28,600 -1,980 Descending Denver Center
07:16PM 39.1661 -103.4439 301° West 296 341 26,700 -1,860 Descending Denver Center
07:17PM 39.2122 -103.5422 301° West 314 361 24,800 -1,860 Descending Denver Center
07:18PM 39.2589 -103.6411 301° West 320 368 22,900 -1,860 Descending Denver Center
07:19PM 39.3064 -103.7406 302° West 322 371 21,000 -1,800 Descending Denver Center
07:20PM 39.3497 -103.8339 301° West 311 358 19,200 -1,620 Descending Denver Center
07:21PM 39.3939 -103.9314 300° West 297 342 17,700 -1,620 Descending Denver Center
07:22PM 39.4003 -104.0383 274° West 298 343 15,900 -1,680 Descending Denver Center
07:23PM 39.4056 -104.1453 274° West 283 326 14,300 -1,320 Descending Denver Center
07:24PM 39.4086 -104.2256 273° West 273 314 13,300 -1,020 Descending Denver Center
07:25PM 39.4358 -104.3261 289° West 244 281 12,200 -1,140 Descending Denver Center
07:26PM 39.4594 -104.4147 289° West 257 296 11,000 -660 Descending Denver Center
07:27PM 39.5050 -104.4928 307° West 267 307 10,900 -480 Descending Denver Center
07:28PM 39.5697 -104.5328 335° Northwest 261 300 10,100 -780 Descending Denver Center
07:29PM 39.6411 -104.5758 335° Northwest 264 304 9,300 -1,020 Descending Denver Center
07:30PM 39.7031 -104.6142 335° Northwest 249 287 8,000 -1,200 Descending Denver Center
07:31PM 39.7556 -104.6442 336° Northwest 192 221 6,900 -960 Descending Denver Center
07:32PM 39.7967 -104.6433 North 152 175 6,100 -780 Descending Denver Center
07:33PM 39.8331 -104.6417 North 145 167 5,400 -720 Descending Denver Center
07:35PM 39.8500 -104.6667 North  Level FlightAware Approximate
07:42PM 39.8617 -104.6732 North  Level Estimated
07:43PM 39.8617 -104.6732 North  Level Estimated